createdAt,value
2018-10-05T00:01:37.126Z,6.13
2018-10-05T00:04:06.250Z,7.83
2018-10-05T00:06:35.297Z,8.93
2018-10-05T00:09:05.138Z,10.47
2018-10-05T00:11:34.378Z,9.80
2018-10-05T00:14:03.688Z,5.83
2018-10-05T00:16:33.130Z,9.17
2018-10-05T00:19:02.505Z,8.33
2018-10-05T00:21:31.923Z,9.77
2018-10-05T00:24:01.451Z,6.57
2018-10-05T00:26:30.883Z,7.30
2018-10-05T00:29:00.041Z,7.10
2018-10-05T00:31:29.485Z,8.37
2018-10-05T00:33:58.947Z,10.03
2018-10-05T00:36:28.214Z,7.93
2018-10-05T00:38:57.524Z,8.87
2018-10-05T00:41:26.921Z,11.03
2018-10-05T00:43:56.288Z,8.63
2018-10-05T00:46:25.663Z,11.83
2018-10-05T00:48:55.428Z,8.00
2018-10-05T00:51:24.538Z,7.73
2018-10-05T00:53:53.857Z,10.57
2018-10-05T00:56:23.219Z,8.20
2018-10-05T00:58:52.824Z,10.13
2018-10-05T01:01:22.116Z,9.57
2018-10-05T01:03:51.691Z,13.50
2018-10-05T01:06:21.084Z,9.77
2018-10-05T01:08:50.342Z,8.77
2018-10-05T01:11:19.807Z,10.87
2018-10-05T01:13:49.231Z,11.57
2018-10-05T01:16:18.756Z,7.53
2018-10-05T01:18:48.295Z,8.60
2018-10-05T01:21:17.496Z,8.87
2018-10-05T01:23:46.982Z,13.10
2018-10-05T01:26:16.442Z,9.87
2018-10-05T01:28:45.568Z,8.83
2018-10-05T01:31:14.948Z,11.47
2018-10-05T01:33:44.311Z,10.03
2018-10-05T01:36:13.584Z,8.97
2018-10-05T01:38:42.930Z,9.53
2018-10-05T01:41:12.535Z,9.77
2018-10-05T01:43:41.976Z,7.67
2018-10-05T01:46:11.393Z,11.97
2018-10-05T01:48:40.859Z,8.93
2018-10-05T01:51:10.202Z,9.57
2018-10-05T01:53:39.500Z,9.67
2018-10-05T01:56:08.916Z,11.20
2018-10-05T01:58:38.243Z,13.70
2018-10-05T02:01:07.620Z,7.87
2018-10-05T02:03:37.218Z,10.57
2018-10-05T02:06:06.837Z,10.30
2018-10-05T02:08:36.338Z,12.07
2018-10-05T02:11:05.748Z,9.47
2018-10-05T02:13:35.085Z,12.47
2018-10-05T02:16:04.660Z,10.60
2018-10-05T02:18:34.096Z,10.20
2018-10-05T02:21:03.560Z,7.87
2018-10-05T02:23:33.132Z,8.87
2018-10-05T02:26:02.244Z,10.63
2018-10-05T02:28:31.428Z,8.17
2018-10-05T02:31:01.127Z,9.20
2018-10-05T02:33:30.832Z,9.33
2018-10-05T02:36:00.264Z,7.07
2018-10-05T02:38:29.609Z,10.13
2018-10-05T02:40:59.037Z,9.03
2018-10-05T02:43:28.321Z,9.17
2018-10-05T02:45:57.640Z,8.27
2018-10-05T02:48:26.908Z,11.30
2018-10-05T02:50:56.206Z,11.27
2018-10-05T02:53:25.537Z,11.50
2018-10-05T02:55:55.003Z,12.40
2018-10-05T02:58:24.390Z,10.27
2018-10-05T03:01:04.561Z,8.60
2018-10-05T03:03:34.521Z,9.07
2018-10-05T03:06:03.933Z,12.77
2018-10-05T03:08:33.571Z,7.93
2018-10-05T03:11:03.238Z,8.13
2018-10-05T03:13:33.142Z,16.73
2018-10-05T03:16:02.409Z,16.30
2018-10-05T03:18:32.537Z,17.17
2018-10-05T03:21:01.774Z,16.53
2018-10-05T03:23:30.868Z,16.30
2018-10-05T03:26:00.352Z,13.03
2018-10-05T03:28:29.435Z,13.53
2018-10-05T03:30:58.878Z,15.10
2018-10-05T03:33:28.151Z,15.77
2018-10-05T03:35:57.443Z,13.90
2018-10-05T03:38:26.828Z,17.77
2018-10-05T03:40:56.134Z,15.20
2018-10-05T03:43:25.630Z,17.13
2018-10-05T03:45:55.054Z,18.40
2018-10-05T03:48:24.603Z,16.43
2018-10-05T03:50:54.054Z,14.77
2018-10-05T03:53:23.093Z,12.00
2018-10-05T03:55:52.506Z,10.67
2018-10-05T03:58:21.878Z,12.77
2018-10-05T04:00:51.374Z,14.17
2018-10-05T04:03:21.025Z,16.27
2018-10-05T04:05:50.468Z,13.17
2018-10-05T04:08:19.756Z,14.67
2018-10-05T04:10:49.182Z,22.13
2018-10-05T04:13:18.897Z,21.60
2018-10-05T04:15:48.455Z,21.47
2018-10-05T04:18:17.926Z,19.87
2018-10-05T04:20:47.450Z,23.67
2018-10-05T04:23:16.548Z,21.50
2018-10-05T04:25:46.014Z,22.33
2018-10-05T04:28:15.115Z,21.90
2018-10-05T04:30:44.251Z,18.63
2018-10-05T04:33:13.608Z,21.07
2018-10-05T04:35:42.687Z,29.07
2018-10-05T04:38:12.103Z,21.93
2018-10-05T04:40:41.506Z,20.00
2018-10-05T04:43:10.695Z,19.90
2018-10-05T04:45:40.118Z,22.17
2018-10-05T04:48:09.617Z,13.03
2018-10-05T04:50:39.080Z,18.33
2018-10-05T04:53:08.590Z,25.97
2018-10-05T04:55:37.856Z,20.83
2018-10-05T04:58:06.900Z,26.57
2018-10-05T05:00:36.014Z,21.80
2018-10-05T05:03:05.934Z,29.20
2018-10-05T05:05:35.048Z,28.07
2018-10-05T05:08:04.150Z,35.03
2018-10-05T05:10:33.190Z,27.40
2018-10-05T05:13:02.313Z,35.77
2018-10-05T05:15:31.747Z,33.67
2018-10-05T05:18:01.405Z,27.60
2018-10-05T05:20:30.778Z,23.60
2018-10-05T05:23:00.230Z,29.23
2018-10-05T05:25:29.323Z,33.00
2018-10-05T05:27:58.380Z,27.23
2018-10-05T05:30:27.885Z,30.87
2018-10-05T05:32:57.306Z,20.77
2018-10-05T05:35:26.797Z,22.97
2018-10-05T05:37:56.074Z,15.03
2018-10-05T05:40:25.282Z,19.17
2018-10-05T05:42:54.266Z,16.77
2018-10-05T05:45:23.638Z,10.50
2018-10-05T05:47:52.818Z,16.57
2018-10-05T05:50:21.925Z,16.43
2018-10-05T05:52:51.073Z,18.17
2018-10-05T05:55:20.184Z,10.77
2018-10-05T05:57:49.255Z,12.10
2018-10-05T06:00:18.298Z,14.97
2018-10-05T06:02:47.500Z,14.10
2018-10-05T06:05:16.563Z,15.80
2018-10-05T06:07:45.744Z,13.73
2018-10-05T06:10:14.783Z,16.00
2018-10-05T06:12:43.830Z,13.03
2018-10-05T06:15:13.010Z,16.13
2018-10-05T06:17:42.149Z,23.63
2018-10-05T06:20:11.247Z,17.07
2018-10-05T06:22:40.552Z,13.23
2018-10-05T06:25:09.617Z,7.93
2018-10-05T06:27:38.854Z,14.13
2018-10-05T06:30:07.986Z,10.20
2018-10-05T06:32:37.022Z,9.77
2018-10-05T06:35:06.200Z,17.27
2018-10-05T06:37:35.610Z,13.07
2018-10-05T06:40:04.677Z,14.87
2018-10-05T06:42:33.845Z,10.83
2018-10-05T06:45:02.908Z,12.00
2018-10-05T06:47:31.991Z,9.10
2018-10-05T06:50:01.166Z,10.33
2018-10-05T06:52:30.203Z,9.97
2018-10-05T06:54:59.303Z,9.97
2018-10-05T06:57:28.408Z,14.67
2018-10-05T06:59:57.471Z,11.03
2018-10-05T07:02:26.554Z,11.27
2018-10-05T07:04:55.745Z,12.90
2018-10-05T07:07:25.810Z,10.70
2018-10-05T07:09:54.884Z,10.60
2018-10-05T07:12:24.076Z,7.03
2018-10-05T07:14:53.139Z,12.33
2018-10-05T07:17:22.180Z,7.90
2018-10-05T07:19:51.235Z,11.40
2018-10-05T07:22:20.337Z,11.23
2018-10-05T07:24:49.373Z,6.87
2018-10-05T07:27:18.550Z,9.63
2018-10-05T07:29:47.759Z,13.00
2018-10-05T07:32:16.915Z,12.67
2018-10-05T07:34:45.987Z,11.60
2018-10-05T07:37:15.046Z,8.53
2018-10-05T07:39:44.159Z,12.73
2018-10-05T07:42:13.247Z,8.70
2018-10-05T07:44:42.522Z,12.63
2018-10-05T07:47:11.959Z,12.23
2018-10-05T07:49:41.107Z,9.90
2018-10-05T07:52:10.142Z,8.30
2018-10-05T07:54:39.231Z,15.40
2018-10-05T07:57:08.578Z,7.90
2018-10-05T07:59:37.928Z,9.27
2018-10-05T08:02:07.519Z,11.70
2018-10-05T08:04:36.554Z,12.63
2018-10-05T08:07:05.712Z,14.23
2018-10-05T08:09:35.164Z,8.33
2018-10-05T08:12:04.171Z,13.53
2018-10-05T08:14:33.215Z,13.50
2018-10-05T08:17:03.140Z,12.30
2018-10-05T08:19:32.392Z,13.73
2018-10-05T08:22:01.495Z,13.37
2018-10-05T08:24:30.771Z,12.37
2018-10-05T08:26:59.914Z,13.60
2018-10-05T08:29:29.085Z,12.93
2018-10-05T08:31:58.299Z,17.27
2018-10-05T08:34:27.667Z,9.60
2018-10-05T08:36:56.784Z,8.30
2018-10-05T08:39:26.135Z,9.77
2018-10-05T08:41:55.239Z,6.87
2018-10-05T08:44:24.628Z,6.13
2018-10-05T08:46:53.686Z,8.23
2018-10-05T08:49:23.160Z,9.83
2018-10-05T08:51:52.674Z,9.00
2018-10-05T08:54:22.031Z,6.20
2018-10-05T08:56:51.305Z,6.40
2018-10-05T08:59:20.367Z,6.17
2018-10-05T09:01:49.494Z,5.87
2018-10-05T09:04:18.632Z,9.47
2018-10-05T09:06:48.125Z,10.33
2018-10-05T09:09:17.238Z,8.50
2018-10-05T09:11:46.271Z,7.37
2018-10-05T09:14:15.668Z,11.20
2018-10-05T09:16:44.739Z,6.27
2018-10-05T09:19:14.118Z,5.37
2018-10-05T09:21:43.221Z,8.53
2018-10-05T09:24:12.387Z,8.57
2018-10-05T09:26:41.381Z,7.00
2018-10-05T09:29:10.410Z,5.10
2018-10-05T09:31:39.451Z,7.60
2018-10-05T09:34:08.508Z,7.33
2018-10-05T09:36:37.514Z,8.63
2018-10-05T09:39:07.868Z,11.60
2018-10-05T09:41:37.136Z,7.60
2018-10-05T09:44:07.445Z,7.20
2018-10-05T09:46:36.547Z,8.37
2018-10-05T09:49:05.657Z,11.47
2018-10-05T09:51:35.120Z,8.23
2018-10-05T09:54:04.158Z,9.27
2018-10-05T09:56:33.173Z,7.40
2018-10-05T09:59:02.504Z,8.60
2018-10-05T10:01:36.964Z,7.40
2018-10-05T10:04:06.473Z,6.83
2018-10-05T10:06:35.974Z,8.07
2018-10-05T10:09:06.543Z,6.97
2018-10-05T10:11:36.172Z,10.90
2018-10-05T10:14:06.010Z,10.33
2018-10-05T10:16:35.463Z,9.17
2018-10-05T10:19:04.641Z,8.70
2018-10-05T10:21:33.700Z,5.93
2018-10-05T10:24:02.851Z,6.60
2018-10-05T10:26:32.124Z,7.90
2018-10-05T10:29:01.169Z,9.17
2018-10-05T10:31:30.233Z,4.57
2018-10-05T10:33:59.666Z,8.13
2018-10-05T10:36:28.735Z,6.50
2018-10-05T10:38:57.802Z,6.20
2018-10-05T10:41:27.019Z,6.47
2018-10-05T10:43:56.206Z,6.63
2018-10-05T10:46:25.262Z,4.33
2018-10-05T10:48:54.484Z,5.37
2018-10-05T10:51:23.562Z,6.23
2018-10-05T10:53:53.024Z,4.33
2018-10-05T10:56:22.410Z,4.70
2018-10-05T10:58:51.710Z,8.13
2018-10-05T11:01:21.024Z,4.37
2018-10-05T11:03:50.307Z,5.57
2018-10-05T11:06:19.568Z,6.83
2018-10-05T11:08:48.612Z,4.63
2018-10-05T11:11:17.847Z,6.13
2018-10-05T11:13:46.950Z,4.77
2018-10-05T11:16:16.270Z,5.10
2018-10-05T11:18:45.899Z,5.03
2018-10-05T11:21:15.076Z,6.90
2018-10-05T11:23:45.232Z,6.90
2018-10-05T11:26:14.484Z,6.17
2018-10-05T11:28:43.514Z,8.17
2018-10-05T11:31:12.603Z,11.13
2018-10-05T11:33:41.773Z,8.17
2018-10-05T11:36:10.820Z,7.27
2018-10-05T11:38:40.052Z,5.93
2018-10-05T11:41:09.144Z,4.77
2018-10-05T11:43:38.224Z,5.47
2018-10-05T11:46:07.588Z,5.07
2018-10-05T11:48:36.600Z,4.03
2018-10-05T11:51:05.706Z,7.43
2018-10-05T11:53:34.976Z,6.87
2018-10-05T11:56:04.047Z,6.33
2018-10-05T11:58:33.092Z,6.20
2018-10-05T12:01:02.240Z,3.57
2018-10-05T12:03:31.644Z,6.37
2018-10-05T12:06:00.723Z,7.77
2018-10-05T12:08:29.819Z,3.93
2018-10-05T12:10:58.955Z,5.37
2018-10-05T12:13:27.931Z,4.90
2018-10-05T12:15:57.293Z,4.83
2018-10-05T12:18:26.592Z,5.30
2018-10-05T12:20:55.692Z,3.57
2018-10-05T12:23:25.083Z,6.23
2018-10-05T12:25:54.484Z,3.33
2018-10-05T12:28:23.840Z,4.37
2018-10-05T12:30:53.476Z,3.10
2018-10-05T12:33:22.899Z,7.40
2018-10-05T12:35:52.047Z,5.33
2018-10-05T12:38:21.378Z,9.33
2018-10-05T12:40:50.472Z,8.60
2018-10-05T12:43:19.546Z,3.50
2018-10-05T12:45:48.622Z,5.80
2018-10-05T12:48:18.083Z,6.03
2018-10-05T12:50:47.778Z,4.73
2018-10-05T12:53:17.161Z,5.27
2018-10-05T12:55:46.272Z,7.13
2018-10-05T12:58:15.393Z,4.57
2018-10-05T13:00:44.481Z,6.20
2018-10-05T13:03:13.554Z,5.87
2018-10-05T13:05:42.962Z,4.13
2018-10-05T13:08:11.992Z,4.70
2018-10-05T13:10:41.005Z,7.43
2018-10-05T13:13:10.157Z,6.67
2018-10-05T13:15:39.257Z,4.73
2018-10-05T13:18:08.815Z,7.00
2018-10-05T13:20:37.923Z,4.40
2018-10-05T13:23:07.460Z,7.83
2018-10-05T13:25:36.515Z,6.10
2018-10-05T13:28:05.566Z,3.00
2018-10-05T13:30:34.611Z,6.63
2018-10-05T13:33:03.580Z,7.67
2018-10-05T13:35:32.615Z,6.27
2018-10-05T13:38:02.069Z,3.13
2018-10-05T13:40:31.399Z,7.53
2018-10-05T13:43:00.434Z,3.97
2018-10-05T13:45:29.516Z,8.27
2018-10-05T13:47:58.618Z,5.13
2018-10-05T13:50:27.600Z,6.57
2018-10-05T13:52:56.860Z,7.60
2018-10-05T13:55:26.238Z,7.40
2018-10-05T13:57:55.354Z,9.70
2018-10-05T14:00:24.419Z,3.53
2018-10-05T14:02:53.439Z,6.47
2018-10-05T14:05:22.578Z,5.37
2018-10-05T14:07:52.520Z,7.00
2018-10-05T14:10:21.598Z,6.10
2018-10-05T14:12:50.594Z,4.87
2018-10-05T14:15:19.652Z,12.27
2018-10-05T14:17:49.168Z,6.07
2018-10-05T14:20:18.859Z,6.20
2018-10-05T14:22:47.866Z,6.47
2018-10-05T14:25:17.196Z,5.37
2018-10-05T14:27:46.595Z,6.13
2018-10-05T14:30:15.571Z,4.30
2018-10-05T14:32:45.075Z,7.00
2018-10-05T14:35:14.139Z,8.67
2018-10-05T14:37:43.171Z,7.03
2018-10-05T14:40:13.479Z,5.57
2018-10-05T14:42:42.920Z,4.10
2018-10-05T14:45:12.169Z,6.13
2018-10-05T14:47:41.461Z,8.87
2018-10-05T14:50:10.902Z,53.97
2018-10-05T14:52:40.500Z,5.63
2018-10-05T14:55:09.602Z,10.97
2018-10-05T14:57:38.892Z,5.03
2018-10-05T15:00:08.292Z,7.13
2018-10-05T15:02:37.875Z,3.83
2018-10-05T15:05:07.304Z,5.10
2018-10-05T15:07:36.532Z,3.87
2018-10-05T15:10:05.943Z,7.47
2018-10-05T15:12:35.315Z,7.63
2018-10-05T15:15:04.676Z,4.17
2018-10-05T15:17:33.991Z,4.73
2018-10-05T15:20:03.340Z,4.17
2018-10-05T15:22:32.963Z,5.60
2018-10-05T15:25:02.323Z,4.67
2018-10-05T15:27:31.654Z,4.73
2018-10-05T15:30:00.956Z,5.93
2018-10-05T15:32:30.458Z,8.87
2018-10-05T15:34:59.742Z,7.17
2018-10-05T15:37:28.774Z,4.17
2018-10-05T15:39:57.792Z,3.30
2018-10-05T15:42:27.252Z,7.57
2018-10-05T15:44:56.472Z,10.27
2018-10-05T15:47:25.954Z,8.07
2018-10-05T15:49:55.471Z,5.80
2018-10-05T15:52:24.650Z,6.17
2018-10-05T15:54:53.748Z,11.60
2018-10-05T15:57:22.864Z,4.90
2018-10-05T15:59:52.239Z,6.03
2018-10-05T16:02:21.335Z,5.33
2018-10-05T16:04:51.026Z,5.63
2018-10-05T16:07:20.387Z,4.97
2018-10-05T16:09:49.655Z,6.33
2018-10-05T16:12:19.018Z,7.60
2018-10-05T16:14:48.183Z,6.80
2018-10-05T16:17:17.556Z,5.63
2018-10-05T16:19:46.624Z,4.83
2018-10-05T16:22:15.788Z,8.77
2018-10-05T16:24:45.637Z,7.53
2018-10-05T16:27:14.908Z,5.23
2018-10-05T16:29:44.084Z,6.93
2018-10-05T16:32:13.335Z,8.17
2018-10-05T16:34:42.614Z,7.50
2018-10-05T16:37:11.755Z,5.87
2018-10-05T16:39:40.815Z,6.93
2018-10-05T16:42:09.920Z,4.97
2018-10-05T16:44:39.017Z,6.17
2018-10-05T16:47:08.132Z,8.67
2018-10-05T16:49:37.552Z,7.07
2018-10-05T16:52:06.974Z,5.53
2018-10-05T16:54:36.388Z,5.10
2018-10-05T16:57:05.492Z,6.27
2018-10-05T16:59:34.875Z,4.10
2018-10-05T17:02:04.230Z,4.63
2018-10-05T17:04:33.334Z,5.07
2018-10-05T17:07:02.430Z,6.37
2018-10-05T17:09:31.984Z,6.97
2018-10-05T17:12:01.510Z,8.60
2018-10-05T17:14:30.894Z,9.13
2018-10-05T17:17:00.054Z,9.83
2018-10-05T17:19:29.142Z,6.70
2018-10-05T17:21:58.560Z,6.20
2018-10-05T17:24:27.981Z,6.57
2018-10-05T17:26:57.417Z,12.17
2018-10-05T17:29:26.921Z,8.60
2018-10-05T17:31:56.246Z,12.30
2018-10-05T17:34:25.519Z,7.93
2018-10-05T17:36:54.684Z,6.90
2018-10-05T17:39:23.907Z,8.23
2018-10-05T17:41:53.424Z,5.43
2018-10-05T17:44:22.910Z,8.80
2018-10-05T17:46:52.672Z,9.47
2018-10-05T17:49:22.111Z,10.13
2018-10-05T17:51:51.583Z,7.47
2018-10-05T17:54:20.934Z,12.10
2018-10-05T17:56:50.338Z,9.80
2018-10-05T17:59:19.763Z,9.60
2018-10-05T18:01:49.163Z,8.33
2018-10-05T18:04:18.452Z,9.93
2018-10-05T18:06:47.665Z,10.37
2018-10-05T18:09:16.870Z,9.63
2018-10-05T18:11:45.982Z,8.07
2018-10-05T18:14:15.098Z,20.13
2018-10-05T18:16:44.152Z,12.23
2018-10-05T18:19:13.204Z,10.43
2018-10-05T18:21:42.336Z,7.30
2018-10-05T18:24:11.483Z,8.93
2018-10-05T18:26:40.680Z,5.63
2018-10-05T18:29:10.008Z,6.57
2018-10-05T18:31:39.063Z,5.93
2018-10-05T18:34:08.359Z,7.57
2018-10-05T18:36:37.729Z,4.40
2018-10-05T18:39:09.012Z,6.00
2018-10-05T18:41:38.417Z,7.20
2018-10-05T18:44:07.630Z,34.00
2018-10-05T18:46:36.583Z,12.77
2018-10-05T18:49:05.870Z,5.83
2018-10-05T18:51:34.907Z,6.30
2018-10-05T18:54:04.280Z,6.17
2018-10-05T18:56:44.083Z,5.27
2018-10-05T18:59:13.242Z,6.80
2018-10-05T19:01:42.338Z,9.07
2018-10-05T19:04:11.611Z,6.07
2018-10-05T19:06:40.792Z,4.10
2018-10-05T19:09:10.152Z,4.17
2018-10-05T19:11:39.733Z,6.07
2018-10-05T19:14:08.798Z,7.70
2018-10-05T19:16:38.107Z,7.30
2018-10-05T19:19:07.216Z,6.03
2018-10-05T19:21:36.236Z,6.07
2018-10-05T19:24:05.332Z,9.17
2018-10-05T19:26:34.630Z,9.73
2018-10-05T19:29:03.820Z,6.13
2018-10-05T19:31:32.892Z,8.37
2018-10-05T19:34:01.931Z,6.57
2018-10-05T19:36:31.053Z,9.07
2018-10-05T19:39:00.166Z,6.80
2018-10-05T19:41:29.814Z,7.97
2018-10-05T19:43:58.867Z,10.40
2018-10-05T19:46:28.300Z,6.20
2018-10-05T19:48:57.810Z,18.40
2018-10-05T19:51:27.210Z,10.03
2018-10-05T19:53:56.332Z,7.87
2018-10-05T19:56:25.808Z,7.60
2018-10-05T19:58:55.000Z,8.97
2018-10-05T20:01:24.894Z,13.60
2018-10-05T20:03:54.254Z,10.60
2018-10-05T20:06:23.628Z,9.50
2018-10-05T20:08:52.828Z,10.97
2018-10-05T20:11:21.892Z,10.50
2018-10-05T20:13:50.940Z,10.00
2018-10-05T20:16:20.091Z,7.67
2018-10-05T20:18:49.205Z,8.70
2018-10-05T20:21:18.297Z,7.77
2018-10-05T20:23:47.420Z,9.37
2018-10-05T20:26:16.478Z,7.00
2018-10-05T20:28:45.552Z,7.30
2018-10-05T20:31:14.658Z,8.23
2018-10-05T20:33:43.707Z,8.87
2018-10-05T20:36:12.956Z,6.57
2018-10-05T20:38:42.123Z,7.23
2018-10-05T20:41:11.206Z,7.20
2018-10-05T20:43:40.365Z,9.93
2018-10-05T20:46:09.476Z,9.03
2018-10-05T20:48:38.904Z,5.33
2018-10-05T20:51:07.927Z,6.13
2018-10-05T20:53:37.664Z,5.40
2018-10-05T20:56:07.234Z,7.13
2018-10-05T20:58:36.652Z,8.30
2018-10-05T21:01:06.005Z,6.50
2018-10-05T21:03:35.311Z,9.80
2018-10-05T21:06:04.806Z,8.53
2018-10-05T21:08:33.856Z,9.73
2018-10-05T21:11:03.136Z,9.07
2018-10-05T21:13:32.165Z,6.93
2018-10-05T21:16:01.630Z,10.43
2018-10-05T21:18:30.758Z,10.93
2018-10-05T21:21:00.024Z,5.67
2018-10-05T21:23:29.472Z,7.63
2018-10-05T21:25:59.025Z,8.00
2018-10-05T21:28:28.326Z,7.50
2018-10-05T21:30:57.626Z,7.43
2018-10-05T21:33:27.004Z,8.57
2018-10-05T21:35:56.435Z,12.20
2018-10-05T21:38:26.042Z,10.33
2018-10-05T21:40:55.602Z,9.13
2018-10-05T21:43:24.959Z,9.70
2018-10-05T21:45:54.413Z,9.67
2018-10-05T21:48:23.789Z,8.73
2018-10-05T21:50:53.313Z,10.43
2018-10-05T21:53:22.613Z,8.73
2018-10-05T21:55:51.879Z,10.43
2018-10-05T21:58:21.070Z,10.53
2018-10-05T22:00:50.111Z,10.50
2018-10-05T22:03:19.175Z,11.47
2018-10-05T22:05:48.556Z,8.80
2018-10-05T22:08:17.615Z,10.13
2018-10-05T22:10:46.718Z,10.23
2018-10-05T22:13:15.793Z,10.77
2018-10-05T22:15:44.944Z,10.50
2018-10-05T22:18:14.014Z,9.17
2018-10-05T22:20:43.145Z,10.27
2018-10-05T22:23:12.640Z,9.93
2018-10-05T22:25:42.029Z,10.47
2018-10-05T22:28:11.214Z,10.37
2018-10-05T22:30:40.360Z,9.37
2018-10-05T22:33:09.463Z,10.90
2018-10-05T22:35:38.634Z,12.57
2018-10-05T22:38:08.122Z,12.50
2018-10-05T22:40:37.208Z,9.87
2018-10-05T22:43:06.305Z,9.27
2018-10-05T22:45:35.674Z,10.03
2018-10-05T22:48:04.807Z,9.97
2018-10-05T22:50:33.940Z,9.33
2018-10-05T22:53:03.166Z,10.07
2018-10-05T22:55:32.344Z,10.17
2018-10-05T22:58:01.518Z,11.60
2018-10-05T23:00:30.633Z,15.23
2018-10-05T23:02:59.864Z,8.27
2018-10-05T23:05:29.168Z,9.07
2018-10-05T23:07:58.646Z,9.30
2018-10-05T23:10:28.031Z,8.30
2018-10-05T23:12:57.434Z,8.87
2018-10-05T23:15:27.574Z,8.80
2018-10-05T23:17:56.685Z,11.27
2018-10-05T23:20:26.078Z,11.40
2018-10-05T23:22:55.475Z,12.70
2018-10-05T23:25:25.050Z,14.90
2018-10-05T23:27:54.110Z,10.53
2018-10-05T23:30:23.360Z,9.70
2018-10-05T23:32:52.898Z,12.80
2018-10-05T23:35:22.433Z,12.17
2018-10-05T23:37:51.667Z,9.23
2018-10-05T23:40:20.760Z,11.87
2018-10-05T23:42:49.914Z,16.53
2018-10-05T23:45:19.437Z,10.97
2018-10-05T23:47:48.516Z,10.37
2018-10-05T23:50:17.723Z,11.57
2018-10-05T23:52:47.990Z,11.83
2018-10-05T23:55:17.123Z,11.53
2018-10-05T23:57:46.390Z,11.80
